createdAt,value
2018-09-23T00:01:17.644Z,98722.73
2018-09-23T00:03:47.047Z,98719.56
2018-09-23T00:06:15.613Z,98722.95
2018-09-23T00:08:43.846Z,98713.16
2018-09-23T00:11:12.085Z,98719.16
2018-09-23T00:13:40.383Z,98714.89
2018-09-23T00:16:08.631Z,98718.48
2018-09-23T00:18:37.112Z,98709.91
2018-09-23T00:21:05.589Z,98701.50
2018-09-23T00:23:33.834Z,98694.80
2018-09-23T00:26:02.938Z,98691.88
2018-09-23T00:28:32.161Z,98684.34
2018-09-23T00:31:00.722Z,98684.91
2018-09-23T00:33:29.100Z,98685.06
2018-09-23T00:35:57.391Z,98679.53
2018-09-23T00:38:26.423Z,98676.12
2018-09-23T00:40:54.685Z,98666.47
2018-09-23T00:43:22.916Z,98663.55
2018-09-23T00:45:51.123Z,98669.42
2018-09-23T00:48:19.693Z,98664.01
2018-09-23T00:50:47.931Z,98659.08
2018-09-23T00:53:16.308Z,98657.08
2018-09-23T00:55:45.494Z,98654.99
2018-09-23T00:58:14.281Z,98656.62
2018-09-23T01:00:42.628Z,98652.51
2018-09-23T01:03:10.887Z,98650.15
2018-09-23T01:05:39.115Z,98642.08
2018-09-23T01:08:07.344Z,98634.52
2018-09-23T01:10:35.640Z,98636.55
2018-09-23T01:13:04.104Z,98620.44
2018-09-23T01:15:32.333Z,98616.78
2018-09-23T01:18:01.281Z,98613.87
2018-09-23T01:20:30.225Z,98615.86
2018-09-23T01:22:58.868Z,98622.31
2018-09-23T01:25:27.598Z,98624.19
2018-09-23T01:27:55.891Z,98629.95
2018-09-23T01:30:24.141Z,98625.85
2018-09-23T01:32:52.978Z,98608.68
2018-09-23T01:35:21.664Z,98617.16
2018-09-23T01:37:50.144Z,98605.28
2018-09-23T01:40:18.679Z,98601.30
2018-09-23T01:42:46.919Z,98600.81
2018-09-23T01:45:18.165Z,98596.13
2018-09-23T01:47:49.124Z,98576.13
2018-09-23T01:50:20.203Z,98573.56
2018-09-23T01:52:49.031Z,98556.91
2018-09-23T01:55:17.320Z,98555.61
2018-09-23T01:57:45.567Z,98560.77
2018-09-23T02:00:14.141Z,98554.44
2018-09-23T02:02:42.771Z,98542.22
2018-09-23T02:05:11.275Z,98538.33
2018-09-23T02:07:40.042Z,98539.52
2018-09-23T02:10:08.327Z,98542.58
2018-09-23T02:12:36.533Z,98535.98
2018-09-23T02:15:05.395Z,98536.47
2018-09-23T02:17:33.770Z,98527.06
2018-09-23T02:20:02.413Z,98523.30
2018-09-23T02:22:30.653Z,98513.92
2018-09-23T02:24:58.918Z,98511.94
2018-09-23T02:27:28.239Z,98504.89
2018-09-23T02:29:56.818Z,98499.22
2018-09-23T02:32:26.233Z,98493.93
2018-09-23T02:34:56.097Z,98486.53
2018-09-23T02:37:24.543Z,98477.50
2018-09-23T02:39:54.376Z,98474.19
2018-09-23T02:42:23.729Z,98471.87
2018-09-23T02:44:52.728Z,98464.00
2018-09-23T02:47:21.025Z,98457.28
2018-09-23T02:49:49.339Z,98452.58
2018-09-23T02:52:18.244Z,98450.60
2018-09-23T02:54:46.612Z,98447.66
2018-09-23T02:57:14.916Z,98437.08
2018-09-23T02:59:43.480Z,98434.73
2018-09-23T03:02:12.028Z,98429.21
2018-09-23T03:04:40.374Z,98423.27
2018-09-23T03:07:12.720Z,98411.48
2018-09-23T03:09:40.990Z,98406.56
2018-09-23T03:12:10.259Z,98412.17
2018-09-23T03:14:38.884Z,98405.38
2018-09-23T03:17:08.145Z,98397.81
2018-09-23T03:19:36.439Z,98398.04
2018-09-23T03:22:04.976Z,98394.66
2018-09-23T03:24:33.771Z,98382.92
2018-09-23T03:27:02.360Z,98385.00
2018-09-23T03:29:30.784Z,98378.30
2018-09-23T03:31:59.022Z,98370.72
2018-09-23T03:34:27.337Z,98373.98
2018-09-23T03:36:56.516Z,98372.44
2018-09-23T03:39:24.794Z,98366.41
2018-09-23T03:41:53.140Z,98358.66
2018-09-23T03:44:21.404Z,98353.13
2018-09-23T03:46:49.621Z,98349.90
2018-09-23T03:49:18.182Z,98335.69
2018-09-23T03:51:46.409Z,98336.00
2018-09-23T03:54:15.537Z,98328.68
2018-09-23T03:56:44.300Z,98318.66
2018-09-23T03:59:12.876Z,98319.06
2018-09-23T04:01:41.117Z,98313.42
2018-09-23T04:04:10.078Z,98312.50
2018-09-23T04:06:38.379Z,98301.37
2018-09-23T04:09:07.819Z,98300.48
2018-09-23T04:11:36.099Z,98294.19
2018-09-23T04:14:04.460Z,98294.02
2018-09-23T04:16:32.876Z,98290.46
2018-09-23T04:19:01.397Z,98288.70
2018-09-23T04:21:29.669Z,98285.11
2018-09-23T04:23:57.942Z,98271.23
2018-09-23T04:26:26.138Z,98270.30
2018-09-23T04:28:54.393Z,98266.94
2018-09-23T04:31:22.633Z,98266.64
2018-09-23T04:33:51.292Z,98270.51
2018-09-23T04:36:20.131Z,98262.80
2018-09-23T04:38:49.110Z,98261.04
2018-09-23T04:41:17.330Z,98266.23
2018-09-23T04:43:45.621Z,98262.92
2018-09-23T04:46:14.315Z,98259.09
2018-09-23T04:48:42.845Z,98258.88
2018-09-23T04:51:11.420Z,98259.55
2018-09-23T04:53:40.826Z,98250.58
2018-09-23T04:56:09.468Z,98255.04
2018-09-23T04:58:38.014Z,98249.83
2018-09-23T05:01:06.275Z,98245.73
2018-09-23T05:03:34.580Z,98251.87
2018-09-23T05:06:02.823Z,98248.77
2018-09-23T05:08:31.130Z,98246.08
2018-09-23T05:10:59.362Z,98238.41
2018-09-23T05:13:27.917Z,98236.86
2018-09-23T05:15:56.204Z,98242.27
2018-09-23T05:18:24.412Z,98233.20
2018-09-23T05:20:52.777Z,98222.91
2018-09-23T05:23:21.022Z,98216.91
2018-09-23T05:25:49.869Z,98212.45
2018-09-23T05:28:18.535Z,98218.45
2018-09-23T05:30:46.812Z,98214.95
2018-09-23T05:33:15.032Z,98215.28
2018-09-23T05:35:43.280Z,98214.33
2018-09-23T05:38:11.948Z,98214.11
2018-09-23T05:40:40.636Z,98209.61
2018-09-23T05:43:09.016Z,98213.79
2018-09-23T05:45:37.186Z,98214.23
2018-09-23T05:48:05.713Z,98217.79
2018-09-23T05:50:34.266Z,98215.30
2018-09-23T05:53:02.516Z,98208.36
2018-09-23T05:55:30.740Z,98186.93
2018-09-23T05:57:58.936Z,98200.80
2018-09-23T06:00:29.832Z,98204.16
2018-09-23T06:02:58.114Z,98207.41
2018-09-23T06:05:26.300Z,98199.80
2018-09-23T06:07:56.683Z,98200.13
2018-09-23T06:10:25.479Z,98214.80
2018-09-23T06:12:54.506Z,98203.72
2018-09-23T06:15:22.738Z,98200.34
2018-09-23T06:17:51.028Z,98200.05
2018-09-23T06:20:19.508Z,98203.28
2018-09-23T06:22:47.792Z,98197.19
2018-09-23T06:25:16.115Z,98206.12
2018-09-23T06:27:44.464Z,98200.67
2018-09-23T06:30:12.959Z,98201.80
2018-09-23T06:32:41.188Z,98193.84
2018-09-23T06:35:09.408Z,98196.48
2018-09-23T06:37:37.929Z,98186.15
2018-09-23T06:40:06.688Z,98183.30
2018-09-23T06:42:34.895Z,98181.52
2018-09-23T06:45:03.444Z,98171.48
2018-09-23T06:47:31.680Z,98168.89
2018-09-23T06:49:59.995Z,98173.92
2018-09-23T06:52:28.228Z,98164.02
2018-09-23T06:54:56.514Z,98167.11
2018-09-23T06:57:25.042Z,98176.55
2018-09-23T06:59:53.204Z,98181.62
2018-09-23T07:02:21.449Z,98186.39
2018-09-23T07:04:50.508Z,98184.14
2018-09-23T07:07:19.014Z,98186.56
2018-09-23T07:09:47.201Z,98189.36
2018-09-23T07:12:15.427Z,98179.59
2018-09-23T07:14:43.744Z,98184.95
2018-09-23T07:17:11.941Z,98180.70
2018-09-23T07:19:40.212Z,98174.00
2018-09-23T07:22:08.431Z,98188.01
2018-09-23T07:24:36.664Z,98186.70
2018-09-23T07:27:05.160Z,98170.34
2018-09-23T07:29:33.629Z,98174.75
2018-09-23T07:32:02.229Z,98177.78
2018-09-23T07:34:30.771Z,98196.39
2018-09-23T07:36:59.045Z,98177.58
2018-09-23T07:39:27.313Z,98177.89
2018-09-23T07:41:55.765Z,98178.67
2018-09-23T07:44:24.091Z,98175.78
2018-09-23T07:46:52.369Z,98183.55
2018-09-23T07:49:21.639Z,98190.08
2018-09-23T07:51:50.258Z,98167.54
2018-09-23T07:54:18.491Z,98180.45
2018-09-23T07:56:46.719Z,98162.89
2018-09-23T07:59:14.924Z,98159.66
2018-09-23T08:01:43.129Z,98165.73
2018-09-23T08:04:12.384Z,98170.81
2018-09-23T08:06:41.262Z,98162.08
2018-09-23T08:09:10.137Z,98172.84
2018-09-23T08:11:39.906Z,98174.91
2018-09-23T08:14:09.397Z,98158.00
2018-09-23T08:16:37.906Z,98157.66
2018-09-23T08:19:07.465Z,98163.66
2018-09-23T08:21:35.831Z,98164.94
2018-09-23T08:24:04.529Z,98161.32
2018-09-23T08:26:32.856Z,98159.61
2018-09-23T08:29:01.270Z,98168.06
2018-09-23T08:31:31.515Z,98161.57
2018-09-23T08:33:59.952Z,98160.19
2018-09-23T08:36:28.369Z,98162.80
2018-09-23T08:38:56.761Z,98165.47
2018-09-23T08:41:25.582Z,98159.65
2018-09-23T08:43:53.996Z,98163.74
2018-09-23T08:46:23.828Z,98155.20
2018-09-23T08:48:52.413Z,98154.06
2018-09-23T08:51:20.724Z,98158.08
2018-09-23T08:53:51.359Z,98174.14
2018-09-23T08:56:19.599Z,98162.92
2018-09-23T08:58:49.887Z,98156.50
2018-09-23T09:01:20.081Z,98157.41
2018-09-23T09:03:49.384Z,98155.38
2018-09-23T09:06:20.296Z,98153.20
2018-09-23T09:08:50.870Z,98150.03
2018-09-23T09:11:21.279Z,98148.23
2018-09-23T09:13:51.746Z,98144.28
2018-09-23T09:16:22.232Z,98141.39
2018-09-23T09:18:52.754Z,98137.45
2018-09-23T09:21:20.922Z,98140.91
2018-09-23T09:23:49.623Z,98135.75
2018-09-23T09:26:17.863Z,98125.77
2018-09-23T09:31:25.223Z,98128.67
2018-09-23T09:33:53.441Z,98115.51
2018-09-23T09:36:21.663Z,98131.81
2018-09-23T09:38:49.869Z,98118.42
2018-09-23T09:41:18.405Z,98118.06
2018-09-23T09:43:46.918Z,98121.28
2018-09-23T09:46:15.122Z,98116.34
2018-09-23T09:48:43.570Z,98111.81
2018-09-23T09:51:12.051Z,98111.91
2018-09-23T09:53:40.657Z,98100.77
2018-09-23T09:56:08.884Z,98109.10
2018-09-23T09:58:37.281Z,98101.43
2018-09-23T10:01:07.097Z,98098.53
2018-09-23T10:03:35.874Z,98099.14
2018-09-23T10:06:04.234Z,98084.17
2018-09-23T10:08:32.457Z,98096.77
2018-09-23T10:11:00.932Z,98087.80
2018-09-23T10:13:29.034Z,98080.31
2018-09-23T10:15:57.289Z,98080.01
2018-09-23T10:18:25.558Z,98064.68
2018-09-23T10:20:53.755Z,98071.66
2018-09-23T10:23:22.008Z,98070.45
2018-09-23T10:25:50.804Z,98108.23
2018-09-23T10:28:19.729Z,98079.98
2018-09-23T10:30:48.436Z,98074.08
2018-09-23T10:33:16.737Z,98056.16
2018-09-23T10:35:45.300Z,98058.77
2018-09-23T10:38:13.776Z,98064.30
2018-09-23T10:40:42.040Z,98049.34
2018-09-23T10:43:10.544Z,98043.56
2018-09-23T10:45:39.128Z,98054.52
2018-09-23T10:48:07.480Z,98033.71
2018-09-23T10:50:35.775Z,98030.83
2018-09-23T10:53:04.280Z,98017.19
2018-09-23T10:55:33.084Z,98007.45
2018-09-23T10:58:01.315Z,98022.14
2018-09-23T11:00:29.659Z,98006.80
2018-09-23T11:02:57.852Z,98006.77
2018-09-23T11:05:26.625Z,98002.05
2018-09-23T11:07:54.849Z,98007.55
2018-09-23T11:10:23.079Z,97999.33
2018-09-23T11:12:51.543Z,97979.59
2018-09-23T11:15:19.822Z,97970.20
2018-09-23T11:17:48.106Z,97968.35
2018-09-23T11:20:16.358Z,97963.78
2018-09-23T11:22:44.590Z,97968.05
2018-09-23T11:25:13.458Z,97973.44
2018-09-23T11:27:41.733Z,97953.31
2018-09-23T11:30:10.221Z,97956.77
2018-09-23T11:32:38.435Z,97967.73
2018-09-23T11:35:07.537Z,97946.95
2018-09-23T11:37:35.786Z,97931.82
2018-09-23T11:42:44.152Z,97933.55
2018-09-23T11:45:12.425Z,97943.14
2018-09-23T11:47:40.639Z,97918.20
2018-09-23T11:50:08.944Z,97914.19
2018-09-23T11:52:38.081Z,97924.12
2018-09-23T11:55:06.364Z,97905.97
2018-09-23T11:57:34.563Z,97902.80
2018-09-23T12:00:02.810Z,97897.99
2018-09-23T12:02:31.485Z,97901.97
2018-09-23T12:05:00.245Z,97889.29
2018-09-23T12:07:28.511Z,97893.97
2018-09-23T12:09:56.756Z,97897.19
2018-09-23T12:12:24.940Z,97894.95
2018-09-23T12:14:53.774Z,97892.27
2018-09-23T12:17:21.949Z,97873.72
2018-09-23T12:19:50.121Z,97878.08
2018-09-23T12:22:18.922Z,97893.91
2018-09-23T12:24:47.406Z,97867.84
2018-09-23T12:27:15.818Z,97877.67
2018-09-23T12:29:44.092Z,97870.70
2018-09-23T12:32:12.644Z,97879.41
2018-09-23T12:34:40.857Z,97859.00
2018-09-23T12:37:09.409Z,97826.39
2018-09-23T12:39:37.645Z,97838.67
2018-09-23T12:42:05.951Z,97820.23
2018-09-23T12:44:34.182Z,97823.30
2018-09-23T12:47:02.674Z,97826.88
2018-09-23T12:49:30.882Z,97810.91
2018-09-23T12:51:59.363Z,97786.95
2018-09-23T12:54:27.628Z,97807.99
2018-09-23T12:56:55.812Z,97785.41
2018-09-23T12:59:24.069Z,97797.21
2018-09-23T13:01:52.336Z,97771.12
2018-09-23T13:04:20.631Z,97760.72
2018-09-23T13:06:49.174Z,97772.98
2018-09-23T13:09:17.428Z,97798.73
2018-09-23T13:11:52.398Z,97768.68
2018-09-23T13:14:20.949Z,97749.83
2018-09-23T13:16:49.187Z,97734.75
2018-09-23T13:19:17.514Z,97752.18
2018-09-23T13:21:45.696Z,97736.01
2018-09-23T13:24:14.226Z,97716.88
2018-09-23T13:26:42.881Z,97713.67
2018-09-23T13:29:11.068Z,97714.50
2018-09-23T13:31:39.412Z,97692.00
2018-09-23T13:34:07.640Z,97685.66
2018-09-23T13:36:35.855Z,97681.42
2018-09-23T13:39:05.391Z,97682.72
2018-09-23T13:41:33.677Z,97676.02
2018-09-23T13:44:01.960Z,97650.09
2018-09-23T13:46:30.250Z,97646.46
2018-09-23T13:48:58.603Z,97631.22
2018-09-23T13:51:27.077Z,97632.17
2018-09-23T13:53:55.339Z,97629.31
2018-09-23T13:56:23.605Z,97638.27
2018-09-23T13:58:51.881Z,97635.91
2018-09-23T14:01:20.255Z,97617.84
2018-09-23T14:03:48.921Z,97605.81
2018-09-23T14:06:17.159Z,97596.48
2018-09-23T14:08:45.489Z,97607.37
2018-09-23T14:11:13.794Z,97603.05
2018-09-23T14:13:42.288Z,97599.65
2018-09-23T14:16:10.599Z,97604.86
2018-09-23T14:18:39.636Z,97589.98
2018-09-23T14:21:08.156Z,97594.16
2018-09-23T14:23:36.738Z,97595.14
2018-09-23T14:26:05.253Z,97577.61
2018-09-23T14:28:33.484Z,97565.41
2018-09-23T14:31:01.775Z,97555.81
2018-09-23T14:33:30.087Z,97543.09
2018-09-23T14:35:58.832Z,97545.01
2018-09-23T14:38:27.097Z,97531.59
2018-09-23T14:40:55.741Z,97531.42
2018-09-23T14:43:24.919Z,97544.45
2018-09-23T14:45:53.524Z,97528.31
2018-09-23T14:48:22.010Z,97534.58
2018-09-23T14:50:50.331Z,97527.91
2018-09-23T14:53:19.084Z,97499.42
2018-09-23T14:55:47.603Z,97485.59
2018-09-23T14:58:16.069Z,97480.17
2018-09-23T15:00:44.317Z,97466.81
2018-09-23T15:03:12.621Z,97495.55
2018-09-23T15:05:41.124Z,97466.28
2018-09-23T15:08:10.328Z,97479.39
2018-09-23T15:10:38.656Z,97464.06
2018-09-23T15:13:06.888Z,97466.66
2018-09-23T15:15:35.223Z,97460.26
2018-09-23T15:18:03.759Z,97468.77
2018-09-23T15:20:32.037Z,97471.57
2018-09-23T15:23:00.613Z,97471.70
2018-09-23T15:25:28.884Z,97451.14
2018-09-23T15:27:57.344Z,97453.50
2018-09-23T15:30:25.536Z,97426.18
2018-09-23T15:32:53.892Z,97427.59
2018-09-23T15:35:22.760Z,97416.29
2018-09-23T15:37:50.958Z,97424.70
2018-09-23T15:40:19.174Z,97388.59
2018-09-23T15:42:47.426Z,97409.97
2018-09-23T15:45:15.628Z,97405.91
2018-09-23T15:47:44.028Z,97409.56
2018-09-23T15:50:12.726Z,97450.02
2018-09-23T15:52:41.388Z,97399.68
2018-09-23T15:55:10.119Z,97379.37
2018-09-23T15:57:38.416Z,97362.09
2018-09-23T16:00:07.477Z,97394.41
2018-09-23T16:02:35.730Z,97414.63
2018-09-23T16:05:04.314Z,97404.80
2018-09-23T16:07:32.524Z,97414.03
2018-09-23T16:10:00.703Z,97423.80
2018-09-23T16:12:29.208Z,97421.60
2018-09-23T16:14:57.561Z,97409.06
2018-09-23T16:17:25.924Z,97390.80
2018-09-23T16:19:55.066Z,97390.80
2018-09-23T16:22:23.989Z,97412.14
2018-09-23T16:24:52.370Z,97426.86
2018-09-23T16:27:20.564Z,97479.06
2018-09-23T16:29:49.322Z,97440.24
2018-09-23T16:32:17.762Z,97458.13
2018-09-23T16:34:45.925Z,97460.84
2018-09-23T16:37:14.249Z,97486.98
2018-09-23T16:39:42.580Z,97503.43
2018-09-23T16:42:11.110Z,97542.59
2018-09-23T16:44:39.662Z,97603.88
2018-09-23T16:47:07.912Z,97625.39
2018-09-23T16:49:38.840Z,97680.84
2018-09-23T16:52:08.356Z,97687.21
2018-09-23T16:54:36.994Z,97671.66
2018-09-23T16:57:05.677Z,97729.03
2018-09-23T16:59:33.968Z,97682.45
2018-09-23T17:02:02.405Z,97641.59
2018-09-23T17:04:30.696Z,97636.58
2018-09-23T17:06:58.915Z,97690.63
2018-09-23T17:09:27.195Z,97663.22
2018-09-23T17:11:55.570Z,97661.45
2018-09-23T17:14:24.401Z,97656.88
2018-09-23T17:16:58.863Z,97700.99
2018-09-23T17:19:27.413Z,97732.80
2018-09-23T17:21:56.073Z,97714.56
2018-09-23T17:24:25.215Z,97716.66
2018-09-23T17:26:53.430Z,97709.48
2018-09-23T17:29:21.673Z,97746.55
2018-09-23T17:31:50.088Z,97765.46
2018-09-23T17:34:18.583Z,97778.60
2018-09-23T17:36:47.509Z,97740.97
2018-09-23T17:39:15.783Z,97766.93
2018-09-23T17:41:44.049Z,97769.83
2018-09-23T17:44:12.661Z,97748.41
2018-09-23T17:46:41.116Z,97757.34
2018-09-23T17:49:09.301Z,97761.50
2018-09-23T17:51:37.937Z,97799.88
2018-09-23T17:54:06.540Z,97802.34
2018-09-23T17:56:35.069Z,97787.91
2018-09-23T17:59:04.410Z,97784.84
2018-09-23T18:01:32.693Z,97775.59
2018-09-23T18:04:01.433Z,97771.20
2018-09-23T18:06:29.652Z,97771.20
2018-09-23T18:08:58.488Z,97752.91
2018-09-23T18:11:27.672Z,97763.06
2018-09-23T18:13:55.877Z,97755.77
2018-09-23T18:16:24.661Z,97757.57
2018-09-23T18:18:53.104Z,97758.25
2018-09-23T18:21:21.745Z,97765.69
2018-09-23T18:23:50.568Z,97797.95
2018-09-23T18:26:18.862Z,97840.77
2018-09-23T18:28:47.109Z,97881.69
2018-09-23T18:31:15.638Z,97944.84
2018-09-23T18:33:44.181Z,97945.94
2018-09-23T18:36:12.509Z,98008.42
2018-09-23T18:38:41.261Z,98059.50
2018-09-23T18:41:10.185Z,98048.88
2018-09-23T18:43:38.477Z,98101.97
2018-09-23T18:46:06.846Z,98118.55
2018-09-23T18:48:35.137Z,98149.03
2018-09-23T18:51:03.576Z,98152.73
2018-09-23T18:53:32.098Z,98160.59
2018-09-23T18:56:00.713Z,98173.25
2018-09-23T18:58:28.932Z,98192.27
2018-09-23T19:00:57.443Z,98227.41
2018-09-23T19:03:26.021Z,98214.17
2018-09-23T19:05:54.588Z,98228.41
2018-09-23T19:08:23.767Z,98210.66
2018-09-23T19:10:52.380Z,98179.47
2018-09-23T19:13:26.519Z,98197.56
2018-09-23T19:16:00.692Z,98242.73
2018-09-23T19:18:29.587Z,98245.91
2018-09-23T19:20:58.666Z,98249.20
2018-09-23T19:23:26.985Z,98262.95
2018-09-23T19:25:55.784Z,98264.56
2018-09-23T19:28:24.823Z,98263.20
2018-09-23T19:30:53.588Z,98264.37
2018-09-23T19:33:22.125Z,98296.14
2018-09-23T19:35:51.316Z,98304.25
2018-09-23T19:38:20.612Z,98347.05
2018-09-23T19:40:49.192Z,98398.88
2018-09-23T19:43:17.438Z,98441.20
2018-09-23T19:45:47.176Z,98451.53
2018-09-23T19:48:16.051Z,98473.00
2018-09-23T19:50:44.320Z,98449.18
2018-09-23T19:53:12.635Z,98432.74
2018-09-23T19:55:41.617Z,98467.38
2018-09-23T19:58:09.954Z,98456.69
2018-09-23T20:00:39.650Z,98466.64
2018-09-23T20:03:08.069Z,98470.55
2018-09-23T20:05:36.372Z,98471.02
2018-09-23T20:08:04.681Z,98473.69
2018-09-23T20:10:37.510Z,98467.60
2018-09-23T20:13:06.915Z,98466.67
2018-09-23T20:15:39.457Z,98449.74
2018-09-23T20:18:08.626Z,98436.38
2018-09-23T20:20:37.303Z,98423.92
2018-09-23T20:23:05.810Z,98469.41
2018-09-23T20:25:34.708Z,98485.94
2018-09-23T20:28:04.761Z,98519.11
2018-09-23T20:30:33.164Z,98536.09
2018-09-23T20:33:04.694Z,98560.45
2018-09-23T20:35:33.308Z,98549.89
2018-09-23T20:38:03.443Z,98552.57
2018-09-23T20:40:32.675Z,98569.44
2018-09-23T20:43:03.989Z,98594.05
2018-09-23T20:45:42.643Z,98608.59
2018-09-23T20:48:11.053Z,98608.08
2018-09-23T20:50:39.955Z,98643.34
2018-09-23T20:53:08.569Z,98682.87
2018-09-23T20:55:38.426Z,98695.00
2018-09-23T20:58:07.366Z,98695.77
2018-09-23T21:00:37.073Z,98696.66
2018-09-23T21:03:09.535Z,98709.00
2018-09-23T21:05:37.989Z,98713.92
2018-09-23T21:08:06.679Z,98703.52
2018-09-23T21:10:35.006Z,98695.03
2018-09-23T21:13:04.579Z,98690.73
2018-09-23T21:15:33.672Z,98697.64
2018-09-23T21:18:02.889Z,98681.19
2018-09-23T21:20:31.919Z,98685.05
2018-09-23T21:23:00.654Z,98680.37
2018-09-23T21:25:29.098Z,98684.66
2018-09-23T21:27:58.564Z,98685.83
2018-09-23T21:30:27.789Z,98694.42
2018-09-23T21:35:34.962Z,98710.58
2018-09-23T21:38:04.359Z,98726.97
2018-09-23T21:40:34.382Z,98738.82
2018-09-23T21:43:04.214Z,98746.05
2018-09-23T21:45:32.622Z,98755.02
2018-09-23T21:48:03.087Z,98758.36
2018-09-23T21:50:31.313Z,98772.16
2018-09-23T21:53:00.409Z,98771.46
2018-09-23T21:55:30.324Z,98782.36
2018-09-23T21:58:00.367Z,98802.30
2018-09-23T22:00:34.793Z,98812.52
2018-09-23T22:03:03.961Z,98826.55
2018-09-23T22:05:32.202Z,98823.95
2018-09-23T22:08:00.720Z,98833.45
2018-09-23T22:10:29.876Z,98836.42
2018-09-23T22:12:58.833Z,98850.39
2018-09-23T22:15:28.711Z,98865.87
2018-09-23T22:17:58.956Z,98875.04
2018-09-23T22:20:27.870Z,98896.48
2018-09-23T22:22:56.612Z,98889.18
2018-09-23T22:25:26.250Z,98905.00
2018-09-23T22:27:55.349Z,98912.66
2018-09-23T22:30:24.090Z,98920.44
2018-09-23T22:32:52.693Z,98944.22
2018-09-23T22:35:21.268Z,98934.44
2018-09-23T22:37:50.568Z,98949.53
2018-09-23T22:40:19.965Z,98965.65
2018-09-23T22:42:48.216Z,98972.17
2018-09-23T22:47:52.444Z,98990.84
2018-09-23T22:50:21.195Z,98994.63
2018-09-23T22:52:50.334Z,99001.41
2018-09-23T22:55:19.259Z,99004.84
2018-09-23T22:57:48.668Z,99012.48
2018-09-23T23:00:18.605Z,99019.84
2018-09-23T23:02:47.248Z,99029.17
2018-09-23T23:05:15.632Z,99036.12
2018-09-23T23:07:44.055Z,99049.09
2018-09-23T23:10:12.582Z,99070.83
2018-09-23T23:12:41.503Z,99081.22
2018-09-23T23:15:10.672Z,99093.64
2018-09-23T23:17:39.046Z,99106.06
2018-09-23T23:20:08.432Z,99110.30
2018-09-23T23:22:36.754Z,99125.02
2018-09-23T23:25:05.388Z,99132.73
2018-09-23T23:27:33.899Z,99137.23
2018-09-23T23:30:03.016Z,99145.32
2018-09-23T23:32:32.524Z,99152.56
2018-09-23T23:35:00.883Z,99161.67
2018-09-23T23:37:29.336Z,99172.02
2018-09-23T23:39:57.811Z,99179.83
2018-09-23T23:42:26.488Z,99191.26
2018-09-23T23:44:54.860Z,99193.02
2018-09-23T23:47:24.868Z,99210.95
2018-09-23T23:49:53.558Z,99206.05
2018-09-23T23:52:22.063Z,99211.03
2018-09-23T23:54:50.449Z,99216.91
2018-09-23T23:57:19.544Z,99228.09
2018-09-23T23:59:48.716Z,99238.46
